sensor_id;sensor_type;location;lat;lon;timestamp;P1;durP1;ratioP1;P2;durP2;ratioP2
18754;SDS011;35061;47.664;9.166;2023-07-09T00:02:03;7.30;;;4.45;;
18754;SDS011;35061;47.664;9.166;2023-07-09T00:04:32;7.00;;;4.45;;
18754;SDS011;35061;47.664;9.166;2023-07-09T00:07:02;6.22;;;4.72;;
18754;SDS011;35061;47.664;9.166;2023-07-09T00:09:32;5.47;;;4.12;;
18754;SDS011;35061;47.664;9.166;2023-07-09T00:12:00;6.55;;;4.65;;
18754;SDS011;35061;47.664;9.166;2023-07-09T00:14:28;6.32;;;4.28;;
18754;SDS011;35061;47.664;9.166;2023-07-09T00:16:56;7.55;;;3.97;;
18754;SDS011;35061;47.664;9.166;2023-07-09T00:19:24;5.37;;;4.22;;
18754;SDS011;35061;47.664;9.166;2023-07-09T00:21:52;6.25;;;3.90;;
18754;SDS011;35061;47.664;9.166;2023-07-09T00:24:21;6.05;;;4.10;;
18754;SDS011;35061;47.664;9.166;2023-07-09T00:26:49;8.20;;;4.97;;
18754;SDS011;35061;47.664;9.166;2023-07-09T00:29:18;5.55;;;3.95;;
18754;SDS011;35061;47.664;9.166;2023-07-09T00:31:46;6.12;;;4.75;;
18754;SDS011;35061;47.664;9.166;2023-07-09T00:34:14;4.72;;;3.92;;
18754;SDS011;35061;47.664;9.166;2023-07-09T00:36:45;7.87;;;4.20;;
18754;SDS011;35061;47.664;9.166;2023-07-09T00:39:15;7.37;;;4.97;;
18754;SDS011;35061;47.664;9.166;2023-07-09T00:41:47;6.10;;;4.55;;
18754;SDS011;35061;47.664;9.166;2023-07-09T00:52:17;6.12;;;4.12;;
18754;SDS011;35061;47.664;9.166;2023-07-09T00:54:50;4.78;;;3.95;;
18754;SDS011;35061;47.664;9.166;2023-07-09T00:57:21;4.97;;;3.80;;
18754;SDS011;35061;47.664;9.166;2023-07-09T00:59:55;4.78;;;4.25;;
18754;SDS011;35061;47.664;9.166;2023-07-09T01:02:29;5.12;;;4.60;;
18754;SDS011;35061;47.664;9.166;2023-07-09T01:04:58;6.10;;;4.22;;
18754;SDS011;35061;47.664;9.166;2023-07-09T01:07:29;4.72;;;3.85;;
18754;SDS011;35061;47.664;9.166;2023-07-09T01:09:57;5.65;;;4.43;;
18754;SDS011;35061;47.664;9.166;2023-07-09T01:12:25;5.53;;;3.83;;
18754;SDS011;35061;47.664;9.166;2023-07-09T01:14:54;6.43;;;4.20;;
18754;SDS011;35061;47.664;9.166;2023-07-09T01:17:27;5.00;;;3.85;;
18754;SDS011;35061;47.664;9.166;2023-07-09T01:19:56;7.15;;;3.87;;
18754;SDS011;35061;47.664;9.166;2023-07-09T01:22:24;4.93;;;4.00;;
18754;SDS011;35061;47.664;9.166;2023-07-09T01:25:02;4.87;;;3.83;;
18754;SDS011;35061;47.664;9.166;2023-07-09T01:27:38;6.05;;;3.83;;
18754;SDS011;35061;47.664;9.166;2023-07-09T01:30:11;5.60;;;4.28;;
18754;SDS011;35061;47.664;9.166;2023-07-09T01:32:44;5.47;;;4.10;;
18754;SDS011;35061;47.664;9.166;2023-07-09T01:35:14;4.87;;;3.60;;
18754;SDS011;35061;47.664;9.166;2023-07-09T01:37:43;5.68;;;3.78;;
18754;SDS011;35061;47.664;9.166;2023-07-09T01:40:12;7.45;;;3.47;;
18754;SDS011;35061;47.664;9.166;2023-07-09T01:42:56;6.40;;;4.43;;
18754;SDS011;35061;47.664;9.166;2023-07-09T01:45:25;5.60;;;4.80;;
18754;SDS011;35061;47.664;9.166;2023-07-09T01:47:54;6.87;;;3.87;;
18754;SDS011;35061;47.664;9.166;2023-07-09T01:50:23;7.03;;;4.47;;
18754;SDS011;35061;47.664;9.166;2023-07-09T01:52:51;5.55;;;4.47;;
18754;SDS011;35061;47.664;9.166;2023-07-09T01:55:21;5.53;;;4.18;;
18754;SDS011;35061;47.664;9.166;2023-07-09T01:57:49;5.93;;;4.28;;
18754;SDS011;35061;47.664;9.166;2023-07-09T02:00:19;6.00;;;4.28;;
18754;SDS011;35061;47.664;9.166;2023-07-09T02:02:47;6.50;;;4.57;;
18754;SDS011;35061;47.664;9.166;2023-07-09T02:05:17;5.25;;;4.00;;
18754;SDS011;35061;47.664;9.166;2023-07-09T02:07:46;5.43;;;4.43;;
18754;SDS011;35061;47.664;9.166;2023-07-09T02:10:16;5.28;;;4.25;;
18754;SDS011;35061;47.664;9.166;2023-07-09T02:12:45;4.82;;;4.22;;
18754;SDS011;35061;47.664;9.166;2023-07-09T02:15:14;4.85;;;3.85;;
18754;SDS011;35061;47.664;9.166;2023-07-09T02:17:43;7.30;;;4.30;;
18754;SDS011;35061;47.664;9.166;2023-07-09T02:20:12;5.00;;;4.15;;
18754;SDS011;35061;47.664;9.166;2023-07-09T02:22:41;4.50;;;4.10;;
18754;SDS011;35061;47.664;9.166;2023-07-09T02:25:10;5.10;;;4.47;;
18754;SDS011;35061;47.664;9.166;2023-07-09T02:27:38;5.87;;;4.57;;
18754;SDS011;35061;47.664;9.166;2023-07-09T02:30:07;5.05;;;4.03;;
18754;SDS011;35061;47.664;9.166;2023-07-09T02:32:35;4.70;;;4.00;;
18754;SDS011;35061;47.664;9.166;2023-07-09T02:35:03;4.32;;;3.92;;
18754;SDS011;35061;47.664;9.166;2023-07-09T02:37:32;4.65;;;3.60;;
18754;SDS011;35061;47.664;9.166;2023-07-09T02:40:01;4.47;;;4.00;;
18754;SDS011;35061;47.664;9.166;2023-07-09T02:42:29;4.82;;;4.20;;
18754;SDS011;35061;47.664;9.166;2023-07-09T02:44:57;5.47;;;4.70;;
18754;SDS011;35061;47.664;9.166;2023-07-09T02:47:25;5.00;;;4.03;;
18754;SDS011;35061;47.664;9.166;2023-07-09T02:49:53;4.87;;;4.30;;
18754;SDS011;35061;47.664;9.166;2023-07-09T02:52:21;4.62;;;4.10;;
18754;SDS011;35061;47.664;9.166;2023-07-09T02:54:49;5.65;;;4.20;;
18754;SDS011;35061;47.664;9.166;2023-07-09T02:57:17;12.25;;;4.47;;
18754;SDS011;35061;47.664;9.166;2023-07-09T02:59:45;5.57;;;4.70;;
18754;SDS011;35061;47.664;9.166;2023-07-09T03:02:13;9.32;;;4.80;;
18754;SDS011;35061;47.664;9.166;2023-07-09T03:04:41;6.15;;;4.70;;
18754;SDS011;35061;47.664;9.166;2023-07-09T03:07:09;6.25;;;4.30;;
18754;SDS011;35061;47.664;9.166;2023-07-09T03:09:37;6.20;;;4.25;;
18754;SDS011;35061;47.664;9.166;2023-07-09T03:12:05;4.87;;;4.30;;
18754;SDS011;35061;47.664;9.166;2023-07-09T03:14:35;5.62;;;4.62;;
18754;SDS011;35061;47.664;9.166;2023-07-09T03:17:03;6.75;;;4.35;;
18754;SDS011;35061;47.664;9.166;2023-07-09T03:19:31;5.32;;;4.03;;
18754;SDS011;35061;47.664;9.166;2023-07-09T03:22:02;4.97;;;3.70;;
18754;SDS011;35061;47.664;9.166;2023-07-09T03:24:31;5.93;;;4.32;;
18754;SDS011;35061;47.664;9.166;2023-07-09T03:26:59;6.10;;;4.07;;
18754;SDS011;35061;47.664;9.166;2023-07-09T03:29:27;5.43;;;4.45;;
18754;SDS011;35061;47.664;9.166;2023-07-09T03:31:55;5.20;;;4.50;;
18754;SDS011;35061;47.664;9.166;2023-07-09T03:34:23;7.07;;;4.32;;
18754;SDS011;35061;47.664;9.166;2023-07-09T03:36:51;5.43;;;4.28;;
18754;SDS011;35061;47.664;9.166;2023-07-09T03:39:19;5.25;;;4.20;;
18754;SDS011;35061;47.664;9.166;2023-07-09T03:41:46;8.80;;;4.90;;
18754;SDS011;35061;47.664;9.166;2023-07-09T03:44:14;6.20;;;4.47;;
18754;SDS011;35061;47.664;9.166;2023-07-09T03:46:42;4.85;;;4.32;;
18754;SDS011;35061;47.664;9.166;2023-07-09T03:49:10;5.78;;;5.05;;
18754;SDS011;35061;47.664;9.166;2023-07-09T03:51:38;6.78;;;4.72;;
18754;SDS011;35061;47.664;9.166;2023-07-09T03:54:06;4.95;;;4.22;;
18754;SDS011;35061;47.664;9.166;2023-07-09T03:56:34;5.95;;;4.25;;
18754;SDS011;35061;47.664;9.166;2023-07-09T03:59:04;5.03;;;4.32;;
18754;SDS011;35061;47.664;9.166;2023-07-09T04:01:32;6.25;;;4.12;;
18754;SDS011;35061;47.664;9.166;2023-07-09T04:04:00;5.22;;;4.20;;
18754;SDS011;35061;47.664;9.166;2023-07-09T04:06:28;5.03;;;4.40;;
18754;SDS011;35061;47.664;9.166;2023-07-09T04:08:56;5.65;;;4.28;;
18754;SDS011;35061;47.664;9.166;2023-07-09T04:11:24;7.03;;;4.78;;
18754;SDS011;35061;47.664;9.166;2023-07-09T04:13:52;6.28;;;4.95;;
18754;SDS011;35061;47.664;9.166;2023-07-09T04:16:21;8.45;;;4.60;;
18754;SDS011;35061;47.664;9.166;2023-07-09T04:18:49;4.93;;;4.32;;
18754;SDS011;35061;47.664;9.166;2023-07-09T04:21:16;6.22;;;4.57;;
18754;SDS011;35061;47.664;9.166;2023-07-09T04:23:44;6.18;;;4.97;;
18754;SDS011;35061;47.664;9.166;2023-07-09T04:26:15;5.47;;;4.72;;
18754;SDS011;35061;47.664;9.166;2023-07-09T04:28:43;5.70;;;4.80;;
18754;SDS011;35061;47.664;9.166;2023-07-09T04:31:11;6.75;;;4.80;;
18754;SDS011;35061;47.664;9.166;2023-07-09T04:33:39;4.93;;;4.20;;
18754;SDS011;35061;47.664;9.166;2023-07-09T04:36:07;5.87;;;4.50;;
18754;SDS011;35061;47.664;9.166;2023-07-09T04:38:36;7.85;;;5.20;;
18754;SDS011;35061;47.664;9.166;2023-07-09T04:41:04;7.12;;;5.43;;
18754;SDS011;35061;47.664;9.166;2023-07-09T04:43:32;5.82;;;5.00;;
18754;SDS011;35061;47.664;9.166;2023-07-09T04:46:00;5.87;;;5.00;;
18754;SDS011;35061;47.664;9.166;2023-07-09T04:48:29;8.82;;;4.53;;
18754;SDS011;35061;47.664;9.166;2023-07-09T04:50:57;5.53;;;4.78;;
18754;SDS011;35061;47.664;9.166;2023-07-09T04:53:27;8.10;;;5.65;;
18754;SDS011;35061;47.664;9.166;2023-07-09T04:55:55;7.40;;;4.85;;
18754;SDS011;35061;47.664;9.166;2023-07-09T04:58:23;7.97;;;4.80;;
18754;SDS011;35061;47.664;9.166;2023-07-09T05:00:51;8.10;;;4.90;;
18754;SDS011;35061;47.664;9.166;2023-07-09T05:03:19;6.68;;;4.45;;
18754;SDS011;35061;47.664;9.166;2023-07-09T05:05:47;6.37;;;5.12;;
18754;SDS011;35061;47.664;9.166;2023-07-09T05:08:16;6.32;;;5.18;;
18754;SDS011;35061;47.664;9.166;2023-07-09T05:10:46;6.93;;;5.18;;
18754;SDS011;35061;47.664;9.166;2023-07-09T05:13:17;7.68;;;5.15;;
18754;SDS011;35061;47.664;9.166;2023-07-09T05:15:46;5.47;;;4.75;;
18754;SDS011;35061;47.664;9.166;2023-07-09T05:18:14;5.62;;;4.93;;
18754;SDS011;35061;47.664;9.166;2023-07-09T05:20:43;6.05;;;4.87;;
18754;SDS011;35061;47.664;9.166;2023-07-09T05:23:11;6.35;;;5.10;;
18754;SDS011;35061;47.664;9.166;2023-07-09T05:25:39;6.00;;;5.15;;
18754;SDS011;35061;47.664;9.166;2023-07-09T05:28:07;6.37;;;5.15;;
18754;SDS011;35061;47.664;9.166;2023-07-09T05:30:36;6.10;;;5.15;;
18754;SDS011;35061;47.664;9.166;2023-07-09T05:33:04;5.97;;;5.37;;
18754;SDS011;35061;47.664;9.166;2023-07-09T05:35:32;7.43;;;5.03;;
18754;SDS011;35061;47.664;9.166;2023-07-09T05:38:00;5.95;;;4.85;;
18754;SDS011;35061;47.664;9.166;2023-07-09T05:40:28;6.00;;;5.00;;
18754;SDS011;35061;47.664;9.166;2023-07-09T05:42:55;5.97;;;4.80;;
18754;SDS011;35061;47.664;9.166;2023-07-09T05:45:23;5.30;;;4.62;;
18754;SDS011;35061;47.664;9.166;2023-07-09T05:47:51;5.28;;;4.75;;
18754;SDS011;35061;47.664;9.166;2023-07-09T05:50:19;6.90;;;5.45;;
18754;SDS011;35061;47.664;9.166;2023-07-09T05:52:47;7.03;;;5.20;;
18754;SDS011;35061;47.664;9.166;2023-07-09T05:55:15;6.97;;;5.28;;
18754;SDS011;35061;47.664;9.166;2023-07-09T05:57:43;6.72;;;4.87;;
18754;SDS011;35061;47.664;9.166;2023-07-09T06:00:12;5.93;;;4.72;;
18754;SDS011;35061;47.664;9.166;2023-07-09T06:02:40;5.53;;;4.68;;
18754;SDS011;35061;47.664;9.166;2023-07-09T06:05:08;6.87;;;5.25;;
18754;SDS011;35061;47.664;9.166;2023-07-09T06:07:37;7.07;;;5.35;;
18754;SDS011;35061;47.664;9.166;2023-07-09T06:10:06;5.25;;;4.47;;
18754;SDS011;35061;47.664;9.166;2023-07-09T06:12:35;7.40;;;4.90;;
18754;SDS011;35061;47.664;9.166;2023-07-09T06:15:03;6.03;;;5.05;;
18754;SDS011;35061;47.664;9.166;2023-07-09T06:17:32;5.75;;;5.10;;
18754;SDS011;35061;47.664;9.166;2023-07-09T06:20:00;6.32;;;5.53;;
18754;SDS011;35061;47.664;9.166;2023-07-09T06:22:28;5.55;;;4.62;;
18754;SDS011;35061;47.664;9.166;2023-07-09T06:24:56;5.07;;;4.57;;
18754;SDS011;35061;47.664;9.166;2023-07-09T06:27:24;4.75;;;4.32;;
18754;SDS011;35061;47.664;9.166;2023-07-09T06:29:52;6.55;;;4.53;;
18754;SDS011;35061;47.664;9.166;2023-07-09T06:32:20;4.68;;;4.25;;
18754;SDS011;35061;47.664;9.166;2023-07-09T06:34:48;6.37;;;4.35;;
18754;SDS011;35061;47.664;9.166;2023-07-09T06:37:16;6.37;;;4.00;;
18754;SDS011;35061;47.664;9.166;2023-07-09T06:39:44;6.60;;;4.20;;
18754;SDS011;35061;47.664;9.166;2023-07-09T06:42:12;4.97;;;4.37;;
18754;SDS011;35061;47.664;9.166;2023-07-09T06:44:40;12.15;;;4.00;;
18754;SDS011;35061;47.664;9.166;2023-07-09T06:47:08;5.40;;;4.43;;
18754;SDS011;35061;47.664;9.166;2023-07-09T06:49:36;7.82;;;4.57;;
18754;SDS011;35061;47.664;9.166;2023-07-09T06:52:04;5.55;;;4.07;;
18754;SDS011;35061;47.664;9.166;2023-07-09T06:54:32;5.43;;;3.78;;
18754;SDS011;35061;47.664;9.166;2023-07-09T06:57:01;5.22;;;4.25;;
18754;SDS011;35061;47.664;9.166;2023-07-09T06:59:29;4.25;;;3.60;;
18754;SDS011;35061;47.664;9.166;2023-07-09T07:01:57;7.12;;;3.87;;
18754;SDS011;35061;47.664;9.166;2023-07-09T07:04:25;4.22;;;3.83;;
18754;SDS011;35061;47.664;9.166;2023-07-09T07:06:54;4.82;;;3.75;;
18754;SDS011;35061;47.664;9.166;2023-07-09T07:09:24;4.20;;;3.80;;
18754;SDS011;35061;47.664;9.166;2023-07-09T07:11:52;4.95;;;3.83;;
18754;SDS011;35061;47.664;9.166;2023-07-09T07:14:20;6.70;;;4.18;;
18754;SDS011;35061;47.664;9.166;2023-07-09T07:16:48;4.72;;;3.70;;
18754;SDS011;35061;47.664;9.166;2023-07-09T07:19:17;6.07;;;3.90;;
18754;SDS011;35061;47.664;9.166;2023-07-09T07:21:45;4.78;;;3.80;;
18754;SDS011;35061;47.664;9.166;2023-07-09T07:24:13;4.37;;;3.85;;
18754;SDS011;35061;47.664;9.166;2023-07-09T07:26:41;4.40;;;3.78;;
18754;SDS011;35061;47.664;9.166;2023-07-09T07:29:09;5.30;;;4.43;;
18754;SDS011;35061;47.664;9.166;2023-07-09T07:31:37;6.00;;;3.95;;
18754;SDS011;35061;47.664;9.166;2023-07-09T07:34:05;7.12;;;4.28;;
18754;SDS011;35061;47.664;9.166;2023-07-09T07:36:33;6.50;;;3.70;;
18754;SDS011;35061;47.664;9.166;2023-07-09T07:39:07;5.35;;;4.12;;
18754;SDS011;35061;47.664;9.166;2023-07-09T07:41:35;5.85;;;4.12;;
18754;SDS011;35061;47.664;9.166;2023-07-09T07:44:04;6.82;;;4.25;;
18754;SDS011;35061;47.664;9.166;2023-07-09T07:46:33;4.75;;;3.65;;
18754;SDS011;35061;47.664;9.166;2023-07-09T07:49:02;4.78;;;4.25;;
18754;SDS011;35061;47.664;9.166;2023-07-09T07:51:30;5.75;;;4.05;;
18754;SDS011;35061;47.664;9.166;2023-07-09T07:53:58;5.10;;;3.58;;
18754;SDS011;35061;47.664;9.166;2023-07-09T07:56:26;5.40;;;4.20;;
18754;SDS011;35061;47.664;9.166;2023-07-09T07:58:54;4.07;;;3.67;;
18754;SDS011;35061;47.664;9.166;2023-07-09T08:01:22;5.93;;;4.32;;
18754;SDS011;35061;47.664;9.166;2023-07-09T08:03:50;6.47;;;4.50;;
18754;SDS011;35061;47.664;9.166;2023-07-09T08:06:18;5.25;;;4.00;;
18754;SDS011;35061;47.664;9.166;2023-07-09T08:08:46;4.97;;;4.50;;
18754;SDS011;35061;47.664;9.166;2023-07-09T08:11:14;5.28;;;4.20;;
18754;SDS011;35061;47.664;9.166;2023-07-09T08:13:42;4.40;;;4.00;;
18754;SDS011;35061;47.664;9.166;2023-07-09T08:16:10;7.10;;;4.50;;
18754;SDS011;35061;47.664;9.166;2023-07-09T08:18:42;4.55;;;4.15;;
18754;SDS011;35061;47.664;9.166;2023-07-09T08:21:10;4.32;;;3.92;;
18754;SDS011;35061;47.664;9.166;2023-07-09T08:23:39;5.53;;;4.57;;
18754;SDS011;35061;47.664;9.166;2023-07-09T08:26:07;4.53;;;4.05;;
18754;SDS011;35061;47.664;9.166;2023-07-09T08:28:35;5.40;;;4.03;;
18754;SDS011;35061;47.664;9.166;2023-07-09T08:31:03;5.15;;;4.65;;
18754;SDS011;35061;47.664;9.166;2023-07-09T08:33:32;6.05;;;4.43;;
18754;SDS011;35061;47.664;9.166;2023-07-09T08:36:01;5.62;;;4.57;;
18754;SDS011;35061;47.664;9.166;2023-07-09T08:38:29;7.75;;;4.70;;
18754;SDS011;35061;47.664;9.166;2023-07-09T08:41:01;4.62;;;4.15;;
18754;SDS011;35061;47.664;9.166;2023-07-09T08:43:50;5.15;;;3.95;;
18754;SDS011;35061;47.664;9.166;2023-07-09T08:46:20;4.80;;;3.87;;
18754;SDS011;35061;47.664;9.166;2023-07-09T08:49:03;5.25;;;4.07;;
18754;SDS011;35061;47.664;9.166;2023-07-09T08:51:43;6.90;;;4.30;;
18754;SDS011;35061;47.664;9.166;2023-07-09T08:54:14;4.82;;;4.07;;
18754;SDS011;35061;47.664;9.166;2023-07-09T08:56:53;6.07;;;4.35;;
18754;SDS011;35061;47.664;9.166;2023-07-09T08:59:25;5.53;;;4.40;;
18754;SDS011;35061;47.664;9.166;2023-07-09T09:01:54;6.12;;;4.28;;
18754;SDS011;35061;47.664;9.166;2023-07-09T09:04:28;4.87;;;3.92;;
18754;SDS011;35061;47.664;9.166;2023-07-09T09:07:01;4.20;;;3.70;;
18754;SDS011;35061;47.664;9.166;2023-07-09T09:09:40;4.37;;;3.50;;
18754;SDS011;35061;47.664;9.166;2023-07-09T09:12:15;4.37;;;4.03;;
18754;SDS011;35061;47.664;9.166;2023-07-09T09:14:56;6.10;;;3.97;;
18754;SDS011;35061;47.664;9.166;2023-07-09T09:17:27;4.65;;;3.70;;
18754;SDS011;35061;47.664;9.166;2023-07-09T09:20:01;4.82;;;4.32;;
18754;SDS011;35061;47.664;9.166;2023-07-09T09:27:56;5.75;;;4.30;;
18754;SDS011;35061;47.664;9.166;2023-07-09T09:30:24;5.45;;;4.60;;
18754;SDS011;35061;47.664;9.166;2023-07-09T09:32:56;4.62;;;4.00;;
18754;SDS011;35061;47.664;9.166;2023-07-09T09:35:29;6.07;;;3.87;;
18754;SDS011;35061;47.664;9.166;2023-07-09T09:38:01;6.22;;;4.20;;
18754;SDS011;35061;47.664;9.166;2023-07-09T09:40:33;6.68;;;4.30;;
18754;SDS011;35061;47.664;9.166;2023-07-09T09:43:02;7.25;;;3.83;;
18754;SDS011;35061;47.664;9.166;2023-07-09T09:45:42;5.28;;;4.30;;
18754;SDS011;35061;47.664;9.166;2023-07-09T09:48:17;4.82;;;4.43;;
18754;SDS011;35061;47.664;9.166;2023-07-09T09:50:55;6.45;;;4.30;;
18754;SDS011;35061;47.664;9.166;2023-07-09T09:53:36;4.50;;;4.10;;
18754;SDS011;35061;47.664;9.166;2023-07-09T09:56:11;5.70;;;4.25;;
18754;SDS011;35061;47.664;9.166;2023-07-09T09:58:42;4.62;;;3.90;;
18754;SDS011;35061;47.664;9.166;2023-07-09T10:01:14;4.37;;;3.97;;
18754;SDS011;35061;47.664;9.166;2023-07-09T10:03:46;4.45;;;3.90;;
18754;SDS011;35061;47.664;9.166;2023-07-09T10:09:43;4.68;;;4.10;;
18754;SDS011;35061;47.664;9.166;2023-07-09T10:12:22;4.28;;;3.87;;
18754;SDS011;35061;47.664;9.166;2023-07-09T10:28:59;4.28;;;3.70;;
18754;SDS011;35061;47.664;9.166;2023-07-09T10:40:17;7.18;;;4.00;;
18754;SDS011;35061;47.664;9.166;2023-07-09T10:42:57;4.28;;;3.87;;
18754;SDS011;35061;47.664;9.166;2023-07-09T10:45:30;5.43;;;3.80;;
18754;SDS011;35061;47.664;9.166;2023-07-09T10:48:18;4.47;;;3.85;;
18754;SDS011;35061;47.664;9.166;2023-07-09T10:50:57;5.15;;;3.72;;
18754;SDS011;35061;47.664;9.166;2023-07-09T10:53:36;4.40;;;2.90;;
18754;SDS011;35061;47.664;9.166;2023-07-09T10:56:11;5.28;;;3.55;;
18754;SDS011;35061;47.664;9.166;2023-07-09T10:58:46;6.25;;;3.47;;
18754;SDS011;35061;47.664;9.166;2023-07-09T11:01:28;3.87;;;3.30;;
18754;SDS011;35061;47.664;9.166;2023-07-09T11:04:01;4.78;;;3.30;;
18754;SDS011;35061;47.664;9.166;2023-07-09T11:06:34;6.05;;;3.78;;
18754;SDS011;35061;47.664;9.166;2023-07-09T11:12:21;4.85;;;3.72;;
18754;SDS011;35061;47.664;9.166;2023-07-09T11:15:23;4.07;;;3.20;;
18754;SDS011;35061;47.664;9.166;2023-07-09T11:17:57;3.50;;;2.87;;
18754;SDS011;35061;47.664;9.166;2023-07-09T11:20:34;4.85;;;3.70;;
18754;SDS011;35061;47.664;9.166;2023-07-09T11:23:17;4.68;;;3.17;;
18754;SDS011;35061;47.664;9.166;2023-07-09T11:25:48;4.40;;;3.37;;
18754;SDS011;35061;47.664;9.166;2023-07-09T11:28:37;3.53;;;3.00;;
18754;SDS011;35061;47.664;9.166;2023-07-09T11:31:07;3.33;;;2.47;;
18754;SDS011;35061;47.664;9.166;2023-07-09T11:33:45;3.12;;;2.83;;
18754;SDS011;35061;47.664;9.166;2023-07-09T11:36:25;4.87;;;3.15;;
18754;SDS011;35061;47.664;9.166;2023-07-09T11:38:54;4.65;;;3.10;;
18754;SDS011;35061;47.664;9.166;2023-07-09T11:41:43;4.10;;;3.45;;
18754;SDS011;35061;47.664;9.166;2023-07-09T11:44:20;5.00;;;3.30;;
18754;SDS011;35061;47.664;9.166;2023-07-09T11:49:21;3.55;;;3.22;;
18754;SDS011;35061;47.664;9.166;2023-07-09T11:51:54;5.87;;;4.22;;
18754;SDS011;35061;47.664;9.166;2023-07-09T11:54:26;3.45;;;2.92;;
18754;SDS011;35061;47.664;9.166;2023-07-09T11:56:58;5.30;;;2.97;;
18754;SDS011;35061;47.664;9.166;2023-07-09T11:59:29;3.37;;;2.67;;
18754;SDS011;35061;47.664;9.166;2023-07-09T12:01:57;3.97;;;3.05;;
18754;SDS011;35061;47.664;9.166;2023-07-09T12:04:31;3.20;;;2.40;;
18754;SDS011;35061;47.664;9.166;2023-07-09T12:07:02;3.25;;;2.50;;
18754;SDS011;35061;47.664;9.166;2023-07-09T12:09:33;3.45;;;2.62;;
18754;SDS011;35061;47.664;9.166;2023-07-09T12:12:16;4.50;;;2.65;;
18754;SDS011;35061;47.664;9.166;2023-07-09T12:14:45;2.62;;;2.40;;
18754;SDS011;35061;47.664;9.166;2023-07-09T12:17:13;3.60;;;2.75;;
18754;SDS011;35061;47.664;9.166;2023-07-09T12:19:41;3.05;;;2.55;;
18754;SDS011;35061;47.664;9.166;2023-07-09T12:22:12;4.95;;;3.92;;
18754;SDS011;35061;47.664;9.166;2023-07-09T12:24:47;3.42;;;2.60;;
18754;SDS011;35061;47.664;9.166;2023-07-09T12:27:18;3.72;;;2.95;;
18754;SDS011;35061;47.664;9.166;2023-07-09T12:29:50;2.80;;;2.45;;
18754;SDS011;35061;47.664;9.166;2023-07-09T12:32:21;3.45;;;2.30;;
18754;SDS011;35061;47.664;9.166;2023-07-09T12:34:51;2.50;;;2.15;;
18754;SDS011;35061;47.664;9.166;2023-07-09T12:37:20;3.53;;;1.83;;
18754;SDS011;35061;47.664;9.166;2023-07-09T12:39:52;2.62;;;2.05;;
18754;SDS011;35061;47.664;9.166;2023-07-09T12:42:23;1.95;;;1.85;;
18754;SDS011;35061;47.664;9.166;2023-07-09T12:44:57;3.50;;;1.87;;
18754;SDS011;35061;47.664;9.166;2023-07-09T12:47:25;4.25;;;2.25;;
18754;SDS011;35061;47.664;9.166;2023-07-09T12:49:59;2.72;;;2.33;;
18754;SDS011;35061;47.664;9.166;2023-07-09T12:52:29;3.47;;;2.30;;
18754;SDS011;35061;47.664;9.166;2023-07-09T12:54:58;1.80;;;1.50;;
18754;SDS011;35061;47.664;9.166;2023-07-09T12:57:28;2.92;;;1.98;;
18754;SDS011;35061;47.664;9.166;2023-07-09T12:59:58;3.15;;;1.95;;
18754;SDS011;35061;47.664;9.166;2023-07-09T13:02:26;2.53;;;2.05;;
18754;SDS011;35061;47.664;9.166;2023-07-09T13:05:39;2.75;;;2.00;;
18754;SDS011;35061;47.664;9.166;2023-07-09T13:07:58;3.58;;;2.55;;
18754;SDS011;35061;47.664;9.166;2023-07-09T13:10:31;1.40;;;1.30;;
18754;SDS011;35061;47.664;9.166;2023-07-09T13:13:06;1.55;;;1.45;;
18754;SDS011;35061;47.664;9.166;2023-07-09T13:15:40;1.80;;;1.02;;
18754;SDS011;35061;47.664;9.166;2023-07-09T13:18:16;2.03;;;1.25;;
18754;SDS011;35061;47.664;9.166;2023-07-09T13:20:44;1.30;;;1.20;;
18754;SDS011;35061;47.664;9.166;2023-07-09T13:23:26;2.35;;;1.48;;
18754;SDS011;35061;47.664;9.166;2023-07-09T13:25:56;2.17;;;1.25;;
18754;SDS011;35061;47.664;9.166;2023-07-09T13:28:26;2.47;;;1.35;;
18754;SDS011;35061;47.664;9.166;2023-07-09T13:30:57;2.87;;;1.62;;
18754;SDS011;35061;47.664;9.166;2023-07-09T13:33:28;2.12;;;1.80;;
18754;SDS011;35061;47.664;9.166;2023-07-09T13:35:56;3.47;;;1.80;;
18754;SDS011;35061;47.664;9.166;2023-07-09T13:38:24;2.78;;;1.98;;
18754;SDS011;35061;47.664;9.166;2023-07-09T13:40:57;2.90;;;1.87;;
18754;SDS011;35061;47.664;9.166;2023-07-09T13:43:32;2.28;;;2.03;;
18754;SDS011;35061;47.664;9.166;2023-07-09T13:46:02;2.95;;;2.42;;
18754;SDS011;35061;47.664;9.166;2023-07-09T13:48:34;2.50;;;2.28;;
18754;SDS011;35061;47.664;9.166;2023-07-09T13:51:11;3.40;;;2.20;;
18754;SDS011;35061;47.664;9.166;2023-07-09T13:53:45;3.62;;;2.20;;
18754;SDS011;35061;47.664;9.166;2023-07-09T13:56:15;3.15;;;2.28;;
18754;SDS011;35061;47.664;9.166;2023-07-09T13:58:43;5.07;;;2.75;;
18754;SDS011;35061;47.664;9.166;2023-07-09T14:01:12;3.30;;;2.30;;
18754;SDS011;35061;47.664;9.166;2023-07-09T14:03:42;3.60;;;2.33;;
18754;SDS011;35061;47.664;9.166;2023-07-09T14:06:11;4.37;;;2.17;;
18754;SDS011;35061;47.664;9.166;2023-07-09T14:08:40;4.32;;;2.40;;
18754;SDS011;35061;47.664;9.166;2023-07-09T14:11:12;3.00;;;2.47;;
18754;SDS011;35061;47.664;9.166;2023-07-09T14:13:43;3.78;;;2.42;;
18754;SDS011;35061;47.664;9.166;2023-07-09T14:16:14;6.65;;;2.60;;
18754;SDS011;35061;47.664;9.166;2023-07-09T14:18:45;4.05;;;2.40;;
18754;SDS011;35061;47.664;9.166;2023-07-09T14:21:14;3.20;;;2.85;;
18754;SDS011;35061;47.664;9.166;2023-07-09T14:23:45;4.97;;;2.60;;
18754;SDS011;35061;47.664;9.166;2023-07-09T14:26:13;6.10;;;2.58;;
18754;SDS011;35061;47.664;9.166;2023-07-09T14:28:41;4.80;;;2.58;;
18754;SDS011;35061;47.664;9.166;2023-07-09T14:31:30;4.82;;;2.53;;
18754;SDS011;35061;47.664;9.166;2023-07-09T14:34:07;3.65;;;2.95;;
18754;SDS011;35061;47.664;9.166;2023-07-09T14:36:45;2.78;;;1.90;;
18754;SDS011;35061;47.664;9.166;2023-07-09T14:39:14;3.50;;;2.15;;
18754;SDS011;35061;47.664;9.166;2023-07-09T14:41:42;4.70;;;2.30;;
18754;SDS011;35061;47.664;9.166;2023-07-09T14:46:57;2.58;;;2.30;;
18754;SDS011;35061;47.664;9.166;2023-07-09T14:49:27;4.20;;;2.60;;
18754;SDS011;35061;47.664;9.166;2023-07-09T14:51:55;3.90;;;1.80;;
18754;SDS011;35061;47.664;9.166;2023-07-09T14:54:25;3.15;;;2.03;;
18754;SDS011;35061;47.664;9.166;2023-07-09T14:56:57;5.20;;;1.98;;
18754;SDS011;35061;47.664;9.166;2023-07-09T14:59:25;4.15;;;2.12;;
18754;SDS011;35061;47.664;9.166;2023-07-09T15:01:53;3.30;;;1.70;;
18754;SDS011;35061;47.664;9.166;2023-07-09T15:04:27;2.35;;;1.95;;
18754;SDS011;35061;47.664;9.166;2023-07-09T15:06:58;2.70;;;1.62;;
18754;SDS011;35061;47.664;9.166;2023-07-09T15:09:27;2.85;;;1.62;;
18754;SDS011;35061;47.664;9.166;2023-07-09T15:11:57;3.22;;;2.35;;
18754;SDS011;35061;47.664;9.166;2023-07-09T15:14:27;3.40;;;2.65;;
18754;SDS011;35061;47.664;9.166;2023-07-09T15:16:55;4.22;;;2.50;;
18754;SDS011;35061;47.664;9.166;2023-07-09T15:19:26;2.97;;;2.42;;
18754;SDS011;35061;47.664;9.166;2023-07-09T15:21:54;5.37;;;2.90;;
18754;SDS011;35061;47.664;9.166;2023-07-09T15:24:27;3.37;;;2.35;;
18754;SDS011;35061;47.664;9.166;2023-07-09T15:26:59;3.35;;;2.00;;
18754;SDS011;35061;47.664;9.166;2023-07-09T15:29:28;3.28;;;2.72;;
18754;SDS011;35061;47.664;9.166;2023-07-09T15:31:58;3.00;;;2.15;;
18754;SDS011;35061;47.664;9.166;2023-07-09T15:34:27;3.03;;;2.50;;
18754;SDS011;35061;47.664;9.166;2023-07-09T15:36:55;3.60;;;2.00;;
18754;SDS011;35061;47.664;9.166;2023-07-09T15:39:23;2.67;;;2.00;;
18754;SDS011;35061;47.664;9.166;2023-07-09T15:41:51;2.10;;;1.87;;
18754;SDS011;35061;47.664;9.166;2023-07-09T15:44:19;2.17;;;1.85;;
18754;SDS011;35061;47.664;9.166;2023-07-09T15:46:51;3.58;;;1.90;;
18754;SDS011;35061;47.664;9.166;2023-07-09T15:49:21;2.25;;;2.03;;
18754;SDS011;35061;47.664;9.166;2023-07-09T15:51:50;3.90;;;2.00;;
18754;SDS011;35061;47.664;9.166;2023-07-09T15:54:19;2.92;;;2.22;;
18754;SDS011;35061;47.664;9.166;2023-07-09T15:56:49;3.60;;;2.10;;